createdAt,value
2017-06-30T00:02:26.180Z,17.03
2017-06-30T00:04:54.812Z,16.33
2017-06-30T00:07:23.215Z,14.17
2017-06-30T00:09:51.628Z,16.37
2017-06-30T00:12:20.054Z,19.30
2017-06-30T00:14:48.467Z,10.20
2017-06-30T00:17:17.585Z,4.10
2017-06-30T00:19:45.979Z,3.20
2017-06-30T00:22:14.396Z,1.90
2017-06-30T00:24:42.803Z,2.30
2017-06-30T00:27:11.219Z,1.53
2017-06-30T00:29:39.635Z,1.30
2017-06-30T00:32:08.056Z,2.17
2017-06-30T00:34:36.452Z,1.43
2017-06-30T00:37:05.091Z,1.27
2017-06-30T00:39:33.498Z,1.80
2017-06-30T00:42:01.883Z,2.70
2017-06-30T00:44:30.304Z,2.37
2017-06-30T00:46:59.105Z,1.57
2017-06-30T00:49:27.524Z,1.97
2017-06-30T00:51:55.914Z,1.70
2017-06-30T00:54:24.331Z,1.50
2017-06-30T00:56:53.136Z,1.30
2017-06-30T00:59:21.552Z,1.27
2017-06-30T01:01:49.962Z,1.73
2017-06-30T01:04:18.480Z,1.50
2017-06-30T01:06:46.964Z,2.13
2017-06-30T01:09:15.367Z,3.17
2017-06-30T01:11:43.794Z,4.47
2017-06-30T01:14:12.204Z,14.40
2017-06-30T01:16:40.786Z,22.83
2017-06-30T01:19:09.206Z,18.70
2017-06-30T01:21:37.648Z,22.70
2017-06-30T01:24:06.073Z,17.33
2017-06-30T01:26:34.480Z,15.67
2017-06-30T01:29:02.908Z,20.70
2017-06-30T01:31:31.310Z,18.60
2017-06-30T01:33:59.856Z,16.90
2017-06-30T01:36:28.259Z,15.33
2017-06-30T01:38:56.661Z,15.00
2017-06-30T01:41:25.091Z,15.70
2017-06-30T01:43:53.900Z,16.10
2017-06-30T01:46:22.314Z,16.27
2017-06-30T01:48:51.079Z,15.93
2017-06-30T01:51:19.511Z,17.87
2017-06-30T01:53:47.916Z,18.17
2017-06-30T01:56:16.353Z,14.60
2017-06-30T01:58:44.746Z,14.90
2017-06-30T02:01:13.562Z,20.07
2017-06-30T02:03:42.355Z,15.70
2017-06-30T02:06:10.772Z,18.93
2017-06-30T02:08:39.177Z,16.07
2017-06-30T02:11:07.596Z,10.93
2017-06-30T02:13:36.030Z,7.53
2017-06-30T02:16:04.435Z,3.77
2017-06-30T02:18:32.843Z,3.50
2017-06-30T02:21:01.520Z,3.07
2017-06-30T02:23:29.947Z,2.40
2017-06-30T02:25:58.338Z,1.80
2017-06-30T02:28:26.958Z,2.30
2017-06-30T02:30:55.767Z,1.93
2017-06-30T02:33:24.179Z,2.50
2017-06-30T02:35:52.600Z,2.63
2017-06-30T02:38:21.394Z,2.30
2017-06-30T02:40:50.312Z,2.40
2017-06-30T02:43:18.700Z,3.40
2017-06-30T02:45:47.113Z,2.90
2017-06-30T02:48:15.510Z,3.03
2017-06-30T02:50:43.933Z,4.83
2017-06-30T02:53:12.326Z,7.07
2017-06-30T02:55:41.088Z,9.33
2017-06-30T02:58:09.878Z,9.43
2017-06-30T03:00:38.778Z,9.87
2017-06-30T03:03:07.281Z,10.47
2017-06-30T03:05:35.692Z,9.47
2017-06-30T03:08:04.119Z,10.57
2017-06-30T03:10:32.516Z,10.10
2017-06-30T03:13:00.941Z,8.70
2017-06-30T03:15:29.366Z,8.00
2017-06-30T03:17:57.933Z,7.30
2017-06-30T03:20:26.724Z,7.77
2017-06-30T03:22:55.521Z,8.77
2017-06-30T03:25:23.941Z,8.17
2017-06-30T03:27:52.332Z,7.73
2017-06-30T03:30:20.752Z,8.23
2017-06-30T03:32:49.634Z,7.80
2017-06-30T03:35:18.435Z,8.90
2017-06-30T03:37:47.227Z,8.33
2017-06-30T03:40:15.637Z,7.53
2017-06-30T03:42:44.046Z,8.73
2017-06-30T03:45:12.800Z,14.27
2017-06-30T03:47:41.214Z,10.27
2017-06-30T03:50:09.618Z,9.77
2017-06-30T03:52:38.321Z,11.47
2017-06-30T03:55:07.118Z,10.40
2017-06-30T03:57:35.689Z,10.87
2017-06-30T04:00:04.496Z,9.63
2017-06-30T04:02:32.900Z,9.90
2017-06-30T04:05:01.324Z,10.53
2017-06-30T04:07:29.711Z,9.20
2017-06-30T04:09:58.127Z,9.23
2017-06-30T04:12:26.528Z,7.53
2017-06-30T04:14:54.942Z,7.83
2017-06-30T04:17:23.349Z,7.33
2017-06-30T04:19:52.547Z,7.67
2017-06-30T04:22:21.414Z,7.37
2017-06-30T04:24:49.806Z,7.27
2017-06-30T04:27:18.615Z,8.80
2017-06-30T04:29:47.005Z,7.23
2017-06-30T04:32:15.478Z,7.30
2017-06-30T04:34:43.862Z,5.77
2017-06-30T04:37:12.342Z,6.57
2017-06-30T04:39:40.750Z,6.17
2017-06-30T04:42:09.509Z,5.53
2017-06-30T04:44:37.913Z,5.07
2017-06-30T04:47:06.309Z,5.10
2017-06-30T04:49:34.727Z,6.37
2017-06-30T04:52:03.514Z,5.63
2017-06-30T04:54:32.016Z,10.57
2017-06-30T04:57:00.802Z,4.63
2017-06-30T04:59:30.023Z,5.40
2017-06-30T05:01:58.830Z,3.80
2017-06-30T05:04:27.225Z,4.13
2017-06-30T05:06:55.629Z,4.43
2017-06-30T05:09:24.023Z,4.17
2017-06-30T05:11:52.832Z,4.77
2017-06-30T05:14:21.244Z,4.43
2017-06-30T05:16:49.654Z,3.60
2017-06-30T05:19:18.051Z,4.30
2017-06-30T05:21:46.862Z,3.50
2017-06-30T05:24:15.272Z,3.57
2017-06-30T05:26:43.819Z,4.00
2017-06-30T05:29:12.215Z,3.37
2017-06-30T05:31:40.628Z,4.70
2017-06-30T05:34:09.035Z,4.17
2017-06-30T05:36:37.424Z,3.90
2017-06-30T05:39:06.373Z,3.93
2017-06-30T05:41:34.788Z,3.67
2017-06-30T05:44:03.200Z,3.43
2017-06-30T05:46:31.585Z,3.50
2017-06-30T05:49:00.160Z,4.67
2017-06-30T05:51:28.564Z,7.40
2017-06-30T05:53:56.957Z,5.27
2017-06-30T05:56:25.381Z,5.30
2017-06-30T05:58:53.770Z,4.63
2017-06-30T06:01:22.592Z,4.47
2017-06-30T06:03:50.978Z,4.87
2017-06-30T06:06:19.399Z,6.30
2017-06-30T06:08:48.838Z,5.57
2017-06-30T06:11:17.415Z,4.50
2017-06-30T06:13:46.219Z,4.87
2017-06-30T06:16:14.895Z,5.00
2017-06-30T06:18:43.324Z,5.57
2017-06-30T06:21:11.736Z,4.70
2017-06-30T06:23:40.559Z,4.60
2017-06-30T06:26:08.955Z,4.83
2017-06-30T06:28:37.371Z,5.37
2017-06-30T06:31:05.762Z,4.57
2017-06-30T06:33:34.368Z,4.93
2017-06-30T06:36:03.159Z,5.27
2017-06-30T06:38:32.053Z,4.33
2017-06-30T06:41:00.474Z,5.60
2017-06-30T06:43:28.874Z,6.40
2017-06-30T06:45:57.303Z,5.30
2017-06-30T06:48:25.705Z,5.93
2017-06-30T06:50:54.129Z,5.83
2017-06-30T06:53:22.518Z,7.03
2017-06-30T06:55:51.330Z,6.63
2017-06-30T06:58:19.713Z,6.17
2017-06-30T07:00:48.293Z,6.10
2017-06-30T07:03:16.683Z,7.60
2017-06-30T07:05:45.074Z,6.90
2017-06-30T07:08:13.488Z,6.50
2017-06-30T07:10:41.899Z,5.50
2017-06-30T07:13:10.708Z,8.07
2017-06-30T07:15:39.394Z,6.60
2017-06-30T07:18:07.818Z,6.57
2017-06-30T07:20:36.225Z,6.23
2017-06-30T07:23:06.061Z,6.70
2017-06-30T07:25:34.467Z,6.50
2017-06-30T07:28:02.873Z,9.00
2017-06-30T07:30:31.290Z,8.00
2017-06-30T07:33:00.078Z,7.10
2017-06-30T07:35:28.897Z,6.73
2017-06-30T07:37:57.871Z,7.67
2017-06-30T07:40:26.675Z,8.50
2017-06-30T07:42:55.085Z,6.80
2017-06-30T07:45:24.304Z,7.90
2017-06-30T07:47:52.696Z,7.27
2017-06-30T07:50:21.312Z,7.47
2017-06-30T07:52:49.697Z,7.57
2017-06-30T07:55:18.099Z,5.97
2017-06-30T07:57:46.515Z,6.70
2017-06-30T08:00:14.919Z,8.43
2017-06-30T08:02:43.727Z,9.20
2017-06-30T08:05:12.122Z,7.90
2017-06-30T08:07:40.642Z,8.07
2017-06-30T08:10:09.038Z,9.07
2017-06-30T08:12:37.451Z,11.60
2017-06-30T08:15:05.868Z,10.40
2017-06-30T08:17:34.519Z,10.20
2017-06-30T08:20:02.951Z,11.67
2017-06-30T08:22:31.368Z,11.50
2017-06-30T08:24:59.794Z,9.63
2017-06-30T08:27:28.699Z,12.50
2017-06-30T08:29:57.125Z,10.77
2017-06-30T08:32:25.549Z,9.70
2017-06-30T08:34:53.996Z,10.90
2017-06-30T08:37:22.477Z,10.57
2017-06-30T08:39:51.012Z,11.03
2017-06-30T08:42:19.411Z,10.37
2017-06-30T08:44:48.270Z,11.53
2017-06-30T08:47:16.695Z,10.40
2017-06-30T08:49:45.626Z,9.23
2017-06-30T08:52:14.050Z,9.50
2017-06-30T08:54:43.684Z,9.80
2017-06-30T08:57:12.619Z,10.10
2017-06-30T08:59:41.017Z,7.90
2017-06-30T09:02:09.410Z,8.47
2017-06-30T09:04:37.827Z,9.20
2017-06-30T09:07:06.240Z,9.17
2017-06-30T09:09:34.672Z,9.03
2017-06-30T09:12:03.466Z,9.40
2017-06-30T09:14:32.296Z,10.50
2017-06-30T09:17:00.698Z,10.27
2017-06-30T09:19:29.210Z,9.90
2017-06-30T09:21:58.013Z,10.43
2017-06-30T09:24:26.583Z,9.70
2017-06-30T09:26:55.500Z,10.10
2017-06-30T09:29:23.987Z,9.73
2017-06-30T09:31:52.418Z,7.67
2017-06-30T09:34:20.815Z,9.70
2017-06-30T09:36:49.924Z,7.47
2017-06-30T09:39:18.730Z,8.07
2017-06-30T09:41:47.161Z,9.00
2017-06-30T09:44:15.572Z,8.90
2017-06-30T09:46:44.409Z,15.70
2017-06-30T09:49:12.851Z,14.67
2017-06-30T09:51:41.637Z,13.60
2017-06-30T09:54:10.436Z,11.17
2017-06-30T09:56:39.005Z,10.47
2017-06-30T09:59:07.862Z,11.57
2017-06-30T10:01:36.283Z,12.60
2017-06-30T10:04:05.457Z,13.40
2017-06-30T10:06:33.866Z,14.40
2017-06-30T10:09:02.442Z,15.07
2017-06-30T10:11:32.119Z,16.57
2017-06-30T10:14:00.537Z,17.40
2017-06-30T10:16:29.346Z,16.60
2017-06-30T10:18:57.763Z,16.37
2017-06-30T10:21:26.183Z,17.20
2017-06-30T10:23:54.986Z,17.63
2017-06-30T10:26:23.412Z,18.00
2017-06-30T10:28:51.820Z,16.70
2017-06-30T10:31:20.352Z,15.20
2017-06-30T10:33:48.756Z,15.83
2017-06-30T10:36:17.155Z,16.37
2017-06-30T10:38:45.570Z,15.83
2017-06-30T10:41:13.974Z,14.97
2017-06-30T10:43:42.398Z,15.20
2017-06-30T10:46:10.807Z,14.70
2017-06-30T10:48:39.225Z,14.90
2017-06-30T10:51:07.639Z,14.80
2017-06-30T10:53:36.070Z,14.90
2017-06-30T10:56:04.471Z,15.43
2017-06-30T10:58:34.043Z,14.50
2017-06-30T11:01:02.460Z,14.33
2017-06-30T11:03:31.213Z,13.77
2017-06-30T11:05:59.648Z,12.63
2017-06-30T11:08:28.059Z,13.33
2017-06-30T11:10:56.493Z,13.70
2017-06-30T11:13:24.905Z,12.33
2017-06-30T11:15:53.516Z,15.03
2017-06-30T11:18:21.923Z,13.13
2017-06-30T11:20:50.327Z,13.30
2017-06-30T11:23:18.788Z,12.53
2017-06-30T11:25:47.191Z,12.60
2017-06-30T11:28:15.614Z,12.10
2017-06-30T11:30:44.118Z,13.50
2017-06-30T11:33:12.779Z,11.60
2017-06-30T11:35:41.575Z,12.20
2017-06-30T11:38:10.397Z,11.47
2017-06-30T11:40:38.812Z,11.63
2017-06-30T11:43:07.244Z,11.00
2017-06-30T11:45:35.668Z,11.30
2017-06-30T11:48:04.400Z,9.70
2017-06-30T11:50:32.949Z,10.40
2017-06-30T11:53:01.353Z,9.67
2017-06-30T11:55:30.161Z,9.63
2017-06-30T11:57:58.579Z,9.67
2017-06-30T12:00:26.985Z,9.97
2017-06-30T12:02:55.471Z,10.00
2017-06-30T12:05:23.862Z,9.50
2017-06-30T12:07:52.687Z,9.10
2017-06-30T12:10:21.089Z,10.13
2017-06-30T12:12:49.937Z,11.83
2017-06-30T12:15:18.347Z,10.80
2017-06-30T12:17:46.752Z,9.80
2017-06-30T12:20:15.300Z,9.73
2017-06-30T12:22:43.695Z,9.53
2017-06-30T12:25:12.116Z,9.60
2017-06-30T12:27:40.535Z,9.73
2017-06-30T12:30:08.955Z,9.37
2017-06-30T12:32:37.380Z,8.33
2017-06-30T12:35:06.895Z,9.03
2017-06-30T12:37:35.309Z,8.87
2017-06-30T12:40:03.955Z,9.30
2017-06-30T12:42:32.757Z,8.63
2017-06-30T12:45:01.164Z,9.60
2017-06-30T12:47:29.790Z,8.70
2017-06-30T12:49:58.194Z,9.27
2017-06-30T12:52:26.629Z,10.53
2017-06-30T12:54:55.040Z,9.80
2017-06-30T12:57:24.247Z,8.67
2017-06-30T12:59:53.041Z,8.10
2017-06-30T13:02:21.455Z,8.40
2017-06-30T13:04:49.893Z,9.30
2017-06-30T13:07:18.701Z,8.47
2017-06-30T13:09:47.277Z,8.90
2017-06-30T13:12:15.959Z,9.80
2017-06-30T13:14:44.756Z,9.00
2017-06-30T13:17:13.188Z,10.03
2017-06-30T13:19:41.592Z,9.47
2017-06-30T13:22:10.101Z,10.60
2017-06-30T13:24:38.524Z,10.13
2017-06-30T13:27:07.163Z,10.13
2017-06-30T13:29:35.577Z,9.90
2017-06-30T13:32:04.413Z,9.03
2017-06-30T13:34:32.838Z,9.03
2017-06-30T13:37:01.247Z,9.60
2017-06-30T13:39:29.676Z,10.90
2017-06-30T13:41:58.102Z,13.40
2017-06-30T13:44:26.530Z,14.00
2017-06-30T13:46:55.327Z,17.13
2017-06-30T13:49:24.116Z,15.43
2017-06-30T13:51:52.524Z,16.63
2017-06-30T13:54:20.941Z,14.37
2017-06-30T13:56:49.365Z,15.47
2017-06-30T13:59:17.775Z,14.60
2017-06-30T14:01:46.524Z,14.43
2017-06-30T14:04:14.936Z,14.43
2017-06-30T14:06:43.352Z,15.60
2017-06-30T14:09:11.748Z,17.70
2017-06-30T14:11:40.564Z,19.00
2017-06-30T14:14:08.974Z,21.80
2017-06-30T14:16:38.278Z,20.30
2017-06-30T14:19:06.688Z,21.80
2017-06-30T14:21:35.086Z,21.10
2017-06-30T14:24:03.898Z,23.97
2017-06-30T14:26:32.303Z,22.90
2017-06-30T14:29:00.726Z,22.47
2017-06-30T14:31:29.134Z,22.90
2017-06-30T14:33:57.567Z,24.60
2017-06-30T14:36:26.019Z,30.17
2017-06-30T14:38:54.680Z,29.57
2017-06-30T14:41:23.089Z,40.23
2017-06-30T14:43:51.490Z,27.43
2017-06-30T14:46:19.907Z,29.60
2017-06-30T14:48:48.694Z,25.43
2017-06-30T14:51:17.514Z,22.13
2017-06-30T14:53:45.916Z,19.50
2017-06-30T14:56:14.352Z,16.93
2017-06-30T14:58:43.255Z,18.03
2017-06-30T15:01:11.936Z,17.10
2017-06-30T15:03:40.726Z,17.03
2017-06-30T15:06:09.519Z,13.50
2017-06-30T15:08:37.948Z,17.67
2017-06-30T15:11:06.350Z,14.77
2017-06-30T15:13:34.860Z,15.37
2017-06-30T15:16:03.268Z,13.53
2017-06-30T15:18:31.690Z,13.03
2017-06-30T15:21:00.090Z,15.00
2017-06-30T15:23:29.204Z,11.27
2017-06-30T15:25:57.616Z,11.73
2017-06-30T15:28:26.052Z,12.00
2017-06-30T15:30:54.863Z,15.07
2017-06-30T15:33:23.267Z,17.30
2017-06-30T15:35:51.717Z,15.33
2017-06-30T15:38:20.122Z,22.70
2017-06-30T15:40:48.548Z,13.17
2017-06-30T15:43:16.950Z,12.43
2017-06-30T15:45:45.741Z,10.50
2017-06-30T15:48:14.178Z,11.40
2017-06-30T15:50:42.585Z,16.00
2017-06-30T15:53:11.415Z,10.20
2017-06-30T15:55:39.818Z,9.40
2017-06-30T15:58:08.256Z,9.93
2017-06-30T16:00:36.668Z,10.20
2017-06-30T16:03:05.104Z,12.30
2017-06-30T16:05:33.914Z,10.83
2017-06-30T16:08:02.501Z,10.90
2017-06-30T16:10:31.005Z,12.30
2017-06-30T16:12:59.425Z,11.53
2017-06-30T16:15:27.857Z,12.20
2017-06-30T16:17:56.391Z,15.67
2017-06-30T16:20:24.816Z,14.80
2017-06-30T16:22:53.218Z,12.20
2017-06-30T16:25:21.758Z,12.63
2017-06-30T16:27:50.454Z,16.00
2017-06-30T16:30:18.872Z,21.73
2017-06-30T16:32:47.616Z,16.50
2017-06-30T16:35:16.420Z,15.73
2017-06-30T16:37:44.853Z,14.07
2017-06-30T16:40:13.260Z,17.33
2017-06-30T16:42:42.416Z,15.33
2017-06-30T16:45:10.825Z,9.70
2017-06-30T16:47:39.642Z,10.57
2017-06-30T16:50:08.084Z,10.73
2017-06-30T16:52:36.496Z,14.07
2017-06-30T16:55:05.309Z,9.30
2017-06-30T16:57:33.781Z,9.13
2017-06-30T17:00:02.196Z,9.80
2017-06-30T17:02:30.590Z,7.90
2017-06-30T17:04:59.431Z,7.77
2017-06-30T17:07:27.838Z,8.80
2017-06-30T17:09:56.265Z,12.30
2017-06-30T17:12:25.072Z,7.87
2017-06-30T17:14:53.476Z,7.77
2017-06-30T17:17:21.905Z,9.93
2017-06-30T17:19:50.416Z,11.10
2017-06-30T17:22:18.843Z,12.37
2017-06-30T17:24:47.248Z,8.67
2017-06-30T17:27:15.761Z,8.23
2017-06-30T17:29:44.181Z,8.00
2017-06-30T17:32:13.331Z,8.50
2017-06-30T17:34:42.140Z,9.23
2017-06-30T17:37:10.580Z,13.90
2017-06-30T17:39:39.011Z,9.90
2017-06-30T17:42:07.421Z,11.20
2017-06-30T17:44:35.853Z,10.63
2017-06-30T17:47:04.272Z,13.80
2017-06-30T17:49:32.695Z,19.23
2017-06-30T17:52:02.135Z,15.27
2017-06-30T17:54:30.802Z,22.30
2017-06-30T17:56:59.212Z,9.67
2017-06-30T17:59:27.625Z,9.50
2017-06-30T18:01:56.061Z,10.47
2017-06-30T18:04:24.480Z,18.37
2017-06-30T18:06:52.902Z,15.10
2017-06-30T18:09:21.316Z,17.00
2017-06-30T18:11:49.745Z,17.47
2017-06-30T18:14:18.158Z,10.80
2017-06-30T18:16:47.342Z,12.60
2017-06-30T18:19:16.158Z,11.00
2017-06-30T18:21:44.556Z,9.20
2017-06-30T18:24:12.979Z,8.00
2017-06-30T18:26:41.792Z,8.10
2017-06-30T18:29:10.221Z,12.87
2017-06-30T18:31:40.233Z,8.00
2017-06-30T18:34:08.661Z,8.47
2017-06-30T18:36:37.470Z,9.87
2017-06-30T18:39:06.256Z,7.00
2017-06-30T18:41:34.671Z,7.00
2017-06-30T18:44:03.070Z,6.87
2017-06-30T18:46:31.504Z,6.70
2017-06-30T18:48:59.903Z,6.37
2017-06-30T18:51:28.341Z,5.57
2017-06-30T18:53:57.159Z,4.83
2017-06-30T18:56:25.721Z,4.40
2017-06-30T18:58:54.124Z,6.23
2017-06-30T19:01:22.540Z,7.40
2017-06-30T19:03:51.017Z,13.20
2017-06-30T19:06:19.434Z,5.83
2017-06-30T19:08:48.252Z,4.97
2017-06-30T19:11:16.647Z,4.47
2017-06-30T19:13:45.078Z,4.83
2017-06-30T19:16:13.885Z,2.90
2017-06-30T19:18:42.328Z,4.30
2017-06-30T19:21:10.741Z,3.17
2017-06-30T19:23:39.675Z,3.23
2017-06-30T19:26:08.080Z,3.70
2017-06-30T19:28:36.486Z,3.53
2017-06-30T19:31:05.291Z,3.30
2017-06-30T19:33:33.696Z,4.40
2017-06-30T19:36:02.120Z,4.73
2017-06-30T19:38:30.525Z,5.27
2017-06-30T19:40:59.335Z,5.00
2017-06-30T19:43:27.740Z,7.13
2017-06-30T19:45:56.596Z,6.57
2017-06-30T19:48:25.017Z,6.53
2017-06-30T19:50:53.427Z,6.53
2017-06-30T19:53:21.879Z,6.70
2017-06-30T19:55:50.302Z,7.50
2017-06-30T19:58:19.120Z,7.80
2017-06-30T20:00:47.535Z,7.73
2017-06-30T20:03:16.266Z,8.23
2017-06-30T20:05:45.076Z,9.77
2017-06-30T20:08:13.500Z,8.80
2017-06-30T20:10:41.933Z,8.43
2017-06-30T20:13:10.494Z,9.00
2017-06-30T20:15:39.284Z,7.63
2017-06-30T20:18:08.083Z,8.90
2017-06-30T20:20:36.911Z,9.40
2017-06-30T20:23:05.316Z,8.67
2017-06-30T20:25:33.731Z,8.80
2017-06-30T20:28:02.527Z,8.90
2017-06-30T20:30:30.967Z,9.30
2017-06-30T20:32:59.376Z,9.80
2017-06-30T20:35:28.389Z,10.27
2017-06-30T20:37:57.417Z,9.17
2017-06-30T20:40:25.891Z,10.23
2017-06-30T20:42:54.309Z,9.07
2017-06-30T20:45:22.729Z,15.50
2017-06-30T20:47:51.156Z,11.00
2017-06-30T20:50:19.568Z,10.50
2017-06-30T20:52:48.591Z,9.73
2017-06-30T20:55:16.991Z,9.30
2017-06-30T20:57:45.398Z,10.37
2017-06-30T21:00:13.845Z,11.10
2017-06-30T21:02:42.259Z,11.73
2017-06-30T21:05:10.684Z,10.97
2017-06-30T21:07:39.097Z,10.93
2017-06-30T21:10:07.719Z,11.83
2017-06-30T21:12:36.120Z,11.77
2017-06-30T21:15:04.922Z,10.43
2017-06-30T21:17:33.353Z,10.83
2017-06-30T21:20:01.759Z,11.07
2017-06-30T21:22:30.596Z,10.90
2017-06-30T21:24:59.012Z,11.23
2017-06-30T21:27:27.436Z,12.10
2017-06-30T21:29:55.848Z,13.53
2017-06-30T21:32:24.322Z,13.50
2017-06-30T21:34:52.722Z,12.13
2017-06-30T21:37:21.365Z,13.67
2017-06-30T21:39:49.788Z,13.33
2017-06-30T21:42:18.222Z,12.87
2017-06-30T21:44:46.656Z,12.03
2017-06-30T21:47:15.069Z,14.47
2017-06-30T21:49:43.882Z,14.07
2017-06-30T21:52:12.294Z,13.73
2017-06-30T21:54:41.054Z,15.07
2017-06-30T21:57:10.250Z,15.83
2017-06-30T21:59:38.670Z,14.90
2017-06-30T22:02:07.130Z,14.87
2017-06-30T22:04:35.534Z,14.57
2017-06-30T22:07:03.950Z,14.90
2017-06-30T22:09:32.764Z,16.10
2017-06-30T22:12:01.188Z,15.90
2017-06-30T22:14:29.609Z,15.57
2017-06-30T22:16:58.428Z,16.20
2017-06-30T22:19:26.826Z,16.33
2017-06-30T22:21:55.375Z,14.80
2017-06-30T22:24:23.775Z,15.13
2017-06-30T22:26:52.186Z,14.07
2017-06-30T22:29:20.611Z,14.70
2017-06-30T22:31:49.018Z,15.13
2017-06-30T22:34:17.436Z,15.90
2017-06-30T22:36:45.843Z,13.90
2017-06-30T22:39:14.655Z,14.77
2017-06-30T22:41:43.057Z,14.23
2017-06-30T22:44:11.482Z,15.60
2017-06-30T22:46:40.293Z,16.57
2017-06-30T22:49:08.711Z,15.33
2017-06-30T22:51:37.122Z,15.53
2017-06-30T22:54:05.704Z,17.17
2017-06-30T22:56:34.106Z,15.60
2017-06-30T22:59:02.920Z,14.67
2017-06-30T23:01:31.343Z,15.23
2017-06-30T23:03:59.756Z,15.33
2017-06-30T23:06:28.592Z,16.50
2017-06-30T23:08:57.509Z,13.47
2017-06-30T23:11:26.132Z,13.10
2017-06-30T23:13:54.930Z,13.00
2017-06-30T23:16:23.336Z,12.30
2017-06-30T23:18:51.776Z,11.93
2017-06-30T23:21:20.671Z,10.70
2017-06-30T23:23:49.510Z,11.50
2017-06-30T23:26:17.930Z,12.60
2017-06-30T23:28:46.756Z,11.67
2017-06-30T23:31:15.163Z,10.90
2017-06-30T23:33:43.697Z,11.20
2017-06-30T23:36:12.495Z,10.47
2017-06-30T23:38:41.629Z,10.37
2017-06-30T23:41:10.061Z,11.20
2017-06-30T23:43:38.878Z,11.77
2017-06-30T23:46:07.297Z,10.97
2017-06-30T23:48:35.710Z,12.10
2017-06-30T23:51:04.538Z,13.97
2017-06-30T23:53:32.955Z,14.20
2017-06-30T23:56:01.446Z,14.30
2017-06-30T23:58:29.857Z,14.27
